createdAt,value
2023-04-25T00:01:42.940Z,9.10
2023-04-25T00:04:10.206Z,9.11
2023-04-25T00:06:37.201Z,9.13
2023-04-25T00:09:07.800Z,9.15
2023-04-25T00:11:34.844Z,9.15
2023-04-25T00:14:02.829Z,9.16
2023-04-25T00:16:34.058Z,9.16
2023-04-25T00:19:02.658Z,9.14
2023-04-25T00:21:29.434Z,9.14
2023-04-25T00:23:56.587Z,9.15
2023-04-25T00:26:23.474Z,9.16
2023-04-25T00:28:50.276Z,9.16
2023-04-25T00:31:17.210Z,9.16
2023-04-25T00:33:44.079Z,9.14
2023-04-25T00:36:11.774Z,9.12
2023-04-25T00:38:38.719Z,9.14
2023-04-25T00:41:07.915Z,9.16
2023-04-25T00:43:36.556Z,9.17
2023-04-25T00:46:03.964Z,9.17
2023-04-25T00:48:30.574Z,9.15
2023-04-25T00:50:59.440Z,9.12
2023-04-25T00:53:27.847Z,9.10
2023-04-25T00:55:55.171Z,9.09
2023-04-25T00:58:22.892Z,9.08
2023-04-25T01:00:52.401Z,9.07
2023-04-25T01:03:22.579Z,9.03
2023-04-25T01:05:50.854Z,9.01
2023-04-25T01:08:17.512Z,8.99
2023-04-25T01:10:44.305Z,8.99
2023-04-25T01:13:11.426Z,9.01
2023-04-25T01:15:38.329Z,9.01
2023-04-25T01:18:05.819Z,8.99
2023-04-25T01:20:33.943Z,8.99
2023-04-25T01:23:03.121Z,8.96
2023-04-25T01:25:31.940Z,8.92
2023-04-25T01:27:59.113Z,8.90
2023-04-25T01:30:29.746Z,8.88
2023-04-25T01:32:57.386Z,8.88
2023-04-25T01:35:24.424Z,8.90
2023-04-25T01:37:51.545Z,8.90
2023-04-25T01:40:19.357Z,8.89
2023-04-25T01:42:46.133Z,8.89
2023-04-25T01:45:13.534Z,8.88
2023-04-25T01:47:40.669Z,8.88
2023-04-25T01:50:08.734Z,8.87
2023-04-25T01:52:35.588Z,8.86
2023-04-25T01:55:03.212Z,8.84
2023-04-25T01:57:29.975Z,8.80
2023-04-25T02:00:01.421Z,8.78
2023-04-25T02:02:28.316Z,8.75
2023-04-25T02:04:55.431Z,8.73
2023-04-25T02:07:22.362Z,8.73
2023-04-25T02:09:49.069Z,8.71
2023-04-25T02:12:15.870Z,8.71
2023-04-25T02:14:42.645Z,8.70
2023-04-25T02:17:09.557Z,8.70
2023-04-25T02:19:36.443Z,8.68
2023-04-25T02:22:03.240Z,8.65
2023-04-25T02:24:34.130Z,8.64
2023-04-25T02:27:01.300Z,8.64
2023-04-25T02:29:28.108Z,8.64
2023-04-25T02:31:55.197Z,8.66
2023-04-25T02:34:23.041Z,8.66
2023-04-25T02:36:52.584Z,8.66
2023-04-25T02:39:19.259Z,8.65
2023-04-25T02:41:45.946Z,8.62
2023-04-25T02:44:12.686Z,8.58
2023-04-25T02:46:40.018Z,8.54
2023-04-25T02:49:07.376Z,8.55
2023-04-25T02:51:34.149Z,8.55
2023-04-25T02:54:00.825Z,8.52
2023-04-25T02:56:27.620Z,8.50
2023-04-25T02:58:57.619Z,8.49
2023-04-25T03:01:24.472Z,8.47
2023-04-25T03:03:51.334Z,8.40
2023-04-25T03:06:18.297Z,8.36
2023-04-25T03:08:44.973Z,8.32
2023-04-25T03:11:11.637Z,8.29
2023-04-25T03:13:38.358Z,8.27
2023-04-25T03:16:05.365Z,8.25
2023-04-25T03:18:32.581Z,8.21
2023-04-25T03:20:59.288Z,8.18
2023-04-25T03:23:26.568Z,8.14
2023-04-25T03:25:53.343Z,8.11
2023-04-25T03:28:20.593Z,8.09
2023-04-25T03:30:47.233Z,8.07
2023-04-25T03:33:14.031Z,8.04
2023-04-25T03:35:40.787Z,8.00
2023-04-25T03:38:07.504Z,7.96
2023-04-25T03:40:34.725Z,7.94
2023-04-25T03:43:01.355Z,7.92
2023-04-25T03:45:28.052Z,7.91
2023-04-25T03:47:54.856Z,7.91
2023-04-25T03:50:21.575Z,7.91
2023-04-25T03:52:48.476Z,7.91
2023-04-25T03:55:15.377Z,7.89
2023-04-25T03:57:42.058Z,7.86
2023-04-25T04:00:10.865Z,7.84
2023-04-25T04:02:38.199Z,7.84
2023-04-25T04:05:06.444Z,7.84
2023-04-25T04:07:33.889Z,7.84
2023-04-25T04:10:00.729Z,7.84
2023-04-25T04:12:27.494Z,7.84
2023-04-25T04:14:54.105Z,7.84
2023-04-25T04:17:20.941Z,7.84
2023-04-25T04:19:47.812Z,7.86
2023-04-25T04:22:14.689Z,7.88
2023-04-25T04:24:44.349Z,7.90
2023-04-25T04:27:13.193Z,7.92
2023-04-25T04:29:39.869Z,7.93
2023-04-25T04:32:07.152Z,7.93
2023-04-25T04:34:34.226Z,7.94
2023-04-25T04:37:03.283Z,7.97
2023-04-25T04:39:30.032Z,8.01
2023-04-25T04:41:57.250Z,8.03
2023-04-25T04:44:25.573Z,8.05
2023-04-25T04:46:52.343Z,8.07
2023-04-25T04:49:19.060Z,8.06
2023-04-25T04:51:45.856Z,8.08
2023-04-25T04:54:13.089Z,8.11
2023-04-25T04:56:39.818Z,8.14
2023-04-25T04:59:07.555Z,8.14
2023-04-25T05:01:36.746Z,8.13
2023-04-25T05:04:04.377Z,8.12
2023-04-25T05:06:31.654Z,8.10
2023-04-25T05:08:58.625Z,8.10
2023-04-25T05:11:25.637Z,8.13
2023-04-25T05:13:53.637Z,8.17
2023-04-25T05:16:21.212Z,8.20
2023-04-25T05:18:48.462Z,8.22
2023-04-25T05:21:15.153Z,8.22
2023-04-25T05:23:41.852Z,8.22
2023-04-25T05:26:14.111Z,8.25
2023-04-25T05:28:42.332Z,8.27
2023-04-25T05:31:12.585Z,8.30
2023-04-25T05:33:39.259Z,8.32
2023-04-25T05:36:06.887Z,8.30
2023-04-25T05:38:34.907Z,8.32
2023-04-25T05:41:02.097Z,8.33
2023-04-25T05:43:28.769Z,8.35
2023-04-25T05:45:55.619Z,8.37
2023-04-25T05:48:22.320Z,8.40
2023-04-25T05:50:49.060Z,8.42
2023-04-25T05:53:15.835Z,8.43
2023-04-25T05:55:42.498Z,8.44
2023-04-25T05:58:09.309Z,8.45
2023-04-25T06:00:36.190Z,8.45
2023-04-25T06:03:03.117Z,8.46
2023-04-25T06:05:30.495Z,8.48
2023-04-25T06:07:57.454Z,8.48
2023-04-25T06:10:24.118Z,8.49
2023-04-25T06:12:50.875Z,8.49
2023-04-25T06:15:27.926Z,8.50
2023-04-25T06:17:56.272Z,8.51
2023-04-25T06:20:24.832Z,8.51
2023-04-25T06:22:52.234Z,8.53
2023-04-25T06:25:19.165Z,8.53
2023-04-25T06:27:45.937Z,8.53
2023-04-25T06:30:12.918Z,8.53
2023-04-25T06:32:39.744Z,8.52
2023-04-25T06:35:07.303Z,8.53
2023-04-25T06:37:34.015Z,8.53
2023-04-25T06:40:00.682Z,8.53
2023-04-25T06:42:27.938Z,8.51
2023-04-25T06:44:55.086Z,8.51
2023-04-25T06:47:21.746Z,8.54
2023-04-25T06:49:48.471Z,8.58
2023-04-25T06:52:15.286Z,8.60
2023-04-25T06:54:42.057Z,8.59
2023-04-25T06:57:08.793Z,8.59
2023-04-25T06:59:35.484Z,8.57
2023-04-25T07:02:02.568Z,8.58
2023-04-25T07:04:29.412Z,8.61
2023-04-25T07:06:56.774Z,8.62
2023-04-25T07:09:23.876Z,8.64
2023-04-25T07:11:50.496Z,8.66
2023-04-25T07:14:17.403Z,8.65
2023-04-25T07:16:44.246Z,8.66
2023-04-25T07:19:11.178Z,8.69
2023-04-25T07:21:38.141Z,8.73
2023-04-25T07:24:05.544Z,8.78
2023-04-25T07:26:32.248Z,8.83
2023-04-25T07:28:58.975Z,8.86
2023-04-25T07:31:25.687Z,8.89
2023-04-25T07:33:53.527Z,8.89
2023-04-25T07:36:21.414Z,8.92
2023-04-25T07:38:48.440Z,8.94
2023-04-25T07:41:15.599Z,8.98
2023-04-25T07:43:42.642Z,9.01
2023-04-25T07:46:09.663Z,9.04
2023-04-25T07:48:36.496Z,9.05
2023-04-25T07:51:05.165Z,9.07
2023-04-25T07:53:35.355Z,9.12
2023-04-25T07:56:02.084Z,9.19
2023-04-25T07:58:28.857Z,9.25
2023-04-25T08:00:55.547Z,9.31
2023-04-25T08:03:22.371Z,9.35
2023-04-25T08:05:49.774Z,9.35
2023-04-25T08:08:16.676Z,9.37
2023-04-25T08:10:43.488Z,9.43
2023-04-25T08:13:10.281Z,9.52
2023-04-25T08:15:37.158Z,9.60
2023-04-25T08:18:04.063Z,9.68
2023-04-25T08:20:30.936Z,9.76
2023-04-25T08:22:57.845Z,9.79
2023-04-25T08:25:24.528Z,9.80
2023-04-25T08:27:51.311Z,9.82
2023-04-25T08:30:18.031Z,9.85
2023-04-25T08:32:44.783Z,9.90
2023-04-25T08:35:11.691Z,9.96
2023-04-25T08:37:38.813Z,10.04
2023-04-25T08:40:07.491Z,10.11
2023-04-25T08:42:37.082Z,10.16
2023-04-25T08:45:06.923Z,10.21
2023-04-25T08:47:35.058Z,10.26
2023-04-25T08:50:04.482Z,10.33
2023-04-25T08:52:38.164Z,10.42
2023-04-25T08:55:09.355Z,10.49
2023-04-25T08:57:37.470Z,10.52
2023-04-25T09:00:05.755Z,10.56
2023-04-25T09:02:33.604Z,10.59
2023-04-25T09:05:00.637Z,10.59
2023-04-25T09:07:27.868Z,10.63
2023-04-25T09:09:54.641Z,10.70
2023-04-25T09:12:21.836Z,10.79
2023-04-25T09:15:04.680Z,10.87
2023-04-25T09:17:31.598Z,10.93
2023-04-25T09:20:13.003Z,10.97
2023-04-25T09:22:40.112Z,10.98
2023-04-25T09:25:12.437Z,10.92
2023-04-25T09:27:53.534Z,10.88
2023-04-25T09:30:31.263Z,10.84
2023-04-25T09:33:05.279Z,10.79
2023-04-25T09:35:40.852Z,10.74
2023-04-25T09:38:15.556Z,10.72
2023-04-25T09:40:46.100Z,10.67
2023-04-25T09:43:19.410Z,10.56
2023-04-25T09:45:47.734Z,10.42
2023-04-25T09:48:21.924Z,10.30
2023-04-25T09:51:10.284Z,10.23
2023-04-25T09:53:40.561Z,10.18
2023-04-25T09:56:09.719Z,10.15
2023-04-25T09:58:38.436Z,10.13
2023-04-25T10:01:08.201Z,10.13
2023-04-25T10:03:42.902Z,10.14
2023-04-25T10:06:14.770Z,10.15
2023-04-25T10:08:42.596Z,10.17
2023-04-25T10:11:09.427Z,10.20
2023-04-25T10:13:36.750Z,10.23
2023-04-25T10:16:05.389Z,10.29
2023-04-25T10:18:33.206Z,10.40
2023-04-25T10:21:02.806Z,10.51
2023-04-25T10:23:31.744Z,10.58
2023-04-25T10:25:59.277Z,10.61
2023-04-25T10:28:26.084Z,10.66
2023-04-25T10:31:05.224Z,10.68
2023-04-25T10:33:37.772Z,10.69
2023-04-25T10:36:34.302Z,10.71
2023-04-25T10:39:09.454Z,10.72
2023-04-25T10:41:56.663Z,10.76
2023-04-25T10:44:26.563Z,10.77
2023-04-25T10:46:56.457Z,10.78
2023-04-25T10:49:43.028Z,10.79
2023-04-25T10:52:18.966Z,10.80
2023-04-25T10:54:48.214Z,10.82
2023-04-25T10:57:32.065Z,10.83
2023-04-25T11:00:11.479Z,10.84
2023-04-25T11:02:44.262Z,10.88
2023-04-25T11:05:19.579Z,10.94
2023-04-25T11:08:00.071Z,10.98
2023-04-25T11:10:36.019Z,11.00
2023-04-25T11:13:03.360Z,10.99
2023-04-25T11:15:30.250Z,11.04
2023-04-25T11:17:57.078Z,11.09
2023-04-25T11:20:26.602Z,11.16
2023-04-25T11:22:53.434Z,11.29
2023-04-25T11:25:20.496Z,11.37
2023-04-25T11:27:54.456Z,11.43
2023-04-25T11:30:24.195Z,11.52
2023-04-25T11:32:52.390Z,11.62
2023-04-25T11:35:21.308Z,11.69
2023-04-25T11:37:48.365Z,11.71
2023-04-25T11:40:15.571Z,11.65
2023-04-25T11:42:47.125Z,11.61
2023-04-25T11:45:15.152Z,11.59
2023-04-25T11:47:41.992Z,11.59
2023-04-25T11:50:09.650Z,11.55
2023-04-25T11:52:40.332Z,11.52
2023-04-25T11:55:15.108Z,11.51
2023-04-25T11:57:43.669Z,11.45
2023-04-25T12:00:15.668Z,11.41
2023-04-25T12:02:46.443Z,11.40
2023-04-25T12:05:31.164Z,11.39
2023-04-25T12:08:11.298Z,11.39
2023-04-25T12:10:42.947Z,11.37
2023-04-25T12:13:22.664Z,11.34
2023-04-25T12:15:49.459Z,11.36
2023-04-25T12:18:21.158Z,11.48
2023-04-25T12:20:47.798Z,11.66
2023-04-25T12:23:14.550Z,11.83
2023-04-25T12:25:43.501Z,12.02
2023-04-25T12:28:20.705Z,12.14
2023-04-25T12:31:02.424Z,12.16
2023-04-25T12:33:32.061Z,12.12
2023-04-25T12:36:00.684Z,12.08
2023-04-25T12:38:48.272Z,12.03
2023-04-25T12:41:15.151Z,11.98
2023-04-25T12:43:42.294Z,11.92
2023-04-25T12:46:10.059Z,11.88
2023-04-25T12:48:38.747Z,11.86
2023-04-25T12:51:05.911Z,11.85
2023-04-25T12:53:33.895Z,11.80
2023-04-25T12:56:02.364Z,11.75
2023-04-25T12:58:29.481Z,11.70
2023-04-25T13:00:56.182Z,11.67
2023-04-25T13:03:23.019Z,11.64
2023-04-25T13:05:50.810Z,11.61
2023-04-25T13:08:17.562Z,11.57
2023-04-25T13:10:44.282Z,11.49
2023-04-25T13:13:11.306Z,11.47
2023-04-25T13:15:38.528Z,11.41
2023-04-25T13:18:08.374Z,11.35
2023-04-25T13:20:35.838Z,11.28
2023-04-25T13:23:03.043Z,11.21
2023-04-25T13:25:31.779Z,11.15
2023-04-25T13:27:58.615Z,11.11
2023-04-25T13:30:32.323Z,11.07
2023-04-25T13:33:03.775Z,11.08
2023-04-25T13:35:36.707Z,11.14
2023-04-25T13:38:48.096Z,11.19
2023-04-25T13:44:34.167Z,11.19
2023-04-25T13:47:12.540Z,11.17
2023-04-25T13:49:55.761Z,11.15
2023-04-25T13:52:30.455Z,11.16
2023-04-25T13:54:58.039Z,11.15
2023-04-25T13:57:54.134Z,11.14
2023-04-25T14:00:21.548Z,11.13
2023-04-25T14:02:50.522Z,11.15
2023-04-25T14:05:17.768Z,11.12
2023-04-25T14:07:44.620Z,11.06
2023-04-25T14:10:12.026Z,11.04
2023-04-25T14:12:38.944Z,10.98
2023-04-25T14:15:06.350Z,10.96
2023-04-25T14:17:33.808Z,10.93
2023-04-25T14:20:00.633Z,10.91
2023-04-25T14:22:27.463Z,10.92
2023-04-25T14:24:54.241Z,10.95
2023-04-25T14:27:20.910Z,10.96
2023-04-25T14:29:48.068Z,10.92
2023-04-25T14:32:14.785Z,10.85
2023-04-25T14:34:41.494Z,10.76
2023-04-25T14:37:08.629Z,10.69
2023-04-25T14:39:35.620Z,10.62
2023-04-25T14:42:02.437Z,10.56
2023-04-25T14:44:29.191Z,10.54
2023-04-25T14:46:55.999Z,10.50
2023-04-25T14:49:22.978Z,10.49
2023-04-25T14:51:51.858Z,10.49
2023-04-25T14:54:19.257Z,10.47
2023-04-25T14:56:46.578Z,10.43
2023-04-25T14:59:13.337Z,10.38
2023-04-25T15:01:40.816Z,10.32
2023-04-25T15:04:07.768Z,10.24
2023-04-25T15:06:34.618Z,10.18
2023-04-25T15:09:01.535Z,10.13
2023-04-25T15:11:28.434Z,10.10
2023-04-25T15:13:55.301Z,10.08
2023-04-25T15:16:22.130Z,10.04
2023-04-25T15:18:49.093Z,9.98
2023-04-25T15:21:15.917Z,9.92
2023-04-25T15:23:42.691Z,9.85
2023-04-25T15:26:09.560Z,9.77
2023-04-25T15:28:36.912Z,9.72
2023-04-25T15:31:05.213Z,9.70
2023-04-25T15:33:32.738Z,9.68
2023-04-25T15:35:59.568Z,9.67
2023-04-25T15:38:26.257Z,9.68
2023-04-25T15:40:55.684Z,9.67
2023-04-25T15:43:22.618Z,9.63
2023-04-25T15:45:49.433Z,9.59
2023-04-25T15:48:16.301Z,9.60
2023-04-25T15:50:43.438Z,9.64
2023-04-25T15:53:10.592Z,9.67
2023-04-25T15:55:37.837Z,9.66
2023-04-25T15:58:07.178Z,9.65
2023-04-25T16:00:35.628Z,9.62
2023-04-25T16:03:03.863Z,9.56
2023-04-25T16:05:31.819Z,9.52
2023-04-25T16:07:59.732Z,9.48
2023-04-25T16:10:27.298Z,9.44
2023-04-25T16:12:53.948Z,9.41
2023-04-25T16:15:20.842Z,9.38
2023-04-25T16:17:47.789Z,9.35
2023-04-25T16:20:15.044Z,9.32
2023-04-25T16:22:43.498Z,9.28
2023-04-25T16:25:13.628Z,9.26
2023-04-25T16:27:40.383Z,9.22
2023-04-25T16:30:12.433Z,9.19
2023-04-25T16:32:41.721Z,9.16
2023-04-25T16:35:09.682Z,9.15
2023-04-25T16:37:36.622Z,9.14
2023-04-25T16:40:03.822Z,9.11
2023-04-25T16:42:30.683Z,9.08
2023-04-25T16:44:57.549Z,9.05
2023-04-25T16:47:25.111Z,9.01
2023-04-25T16:49:55.454Z,8.96
2023-04-25T16:52:24.004Z,8.97
2023-04-25T16:54:51.143Z,8.93
2023-04-25T16:57:17.965Z,8.90
2023-04-25T16:59:45.439Z,8.88
2023-04-25T17:02:13.148Z,8.86
2023-04-25T17:04:40.524Z,8.83
2023-04-25T17:07:08.054Z,8.83
2023-04-25T17:09:37.230Z,8.83
2023-04-25T17:12:04.466Z,8.83
2023-04-25T17:14:32.611Z,8.84
2023-04-25T17:17:01.044Z,8.83
2023-04-25T17:19:28.525Z,8.79
2023-04-25T17:21:55.520Z,8.78
2023-04-25T17:24:22.208Z,8.77
2023-04-25T17:26:49.151Z,8.74
2023-04-25T17:29:16.636Z,8.73
2023-04-25T17:31:44.156Z,8.71
2023-04-25T17:34:15.868Z,8.72
2023-04-25T17:36:42.788Z,8.71
2023-04-25T17:39:10.532Z,8.70
2023-04-25T17:41:37.937Z,8.69
2023-04-25T17:44:04.852Z,8.69
2023-04-25T17:46:31.659Z,8.67
2023-04-25T17:48:58.439Z,8.65
2023-04-25T17:51:25.818Z,8.64
2023-04-25T17:53:52.506Z,8.62
2023-04-25T17:56:26.408Z,8.59
2023-04-25T17:58:54.769Z,8.56
2023-04-25T18:01:22.028Z,8.53
2023-04-25T18:03:49.271Z,8.52
2023-04-25T18:06:16.334Z,8.50
2023-04-25T18:08:44.103Z,8.47
2023-04-25T18:11:11.335Z,8.45
2023-04-25T18:13:38.602Z,8.42
2023-04-25T18:16:06.029Z,8.37
2023-04-25T18:18:35.236Z,8.35
2023-04-25T18:21:04.361Z,8.32
2023-04-25T18:23:34.459Z,8.27
2023-04-25T18:26:02.154Z,8.25
2023-04-25T18:28:29.248Z,8.22
2023-04-25T18:30:56.235Z,8.21
2023-04-25T18:33:23.003Z,8.18
2023-04-25T18:35:58.686Z,8.15
2023-04-25T18:41:02.677Z,8.13
2023-04-25T18:43:37.296Z,8.10
2023-04-25T18:46:04.204Z,8.08
2023-04-25T18:48:30.878Z,8.05
2023-04-25T18:50:57.592Z,8.02
2023-04-25T18:53:24.251Z,8.00
2023-04-25T18:55:51.038Z,7.97
2023-04-25T18:58:17.757Z,7.92
2023-04-25T19:00:44.672Z,7.89
2023-04-25T19:03:12.062Z,7.86
2023-04-25T19:05:38.956Z,7.84
2023-04-25T19:08:05.917Z,7.79
2023-04-25T19:10:32.731Z,7.76
2023-04-25T19:13:00.090Z,7.73
2023-04-25T19:15:27.870Z,7.71
2023-04-25T19:17:54.857Z,7.67
2023-04-25T19:20:21.528Z,7.65
2023-04-25T19:22:48.415Z,7.66
2023-04-25T19:25:15.321Z,7.68
2023-04-25T19:27:42.168Z,7.70
2023-04-25T19:30:10.172Z,7.72
2023-04-25T19:32:38.187Z,7.73
2023-04-25T19:35:07.450Z,7.74
2023-04-25T19:37:35.443Z,7.75
2023-04-25T19:40:04.341Z,7.74
2023-04-25T19:42:31.459Z,7.74
2023-04-25T19:44:58.821Z,7.74
2023-04-25T19:47:27.458Z,7.73
2023-04-25T19:49:54.711Z,7.69
2023-04-25T19:52:21.573Z,7.66
2023-04-25T19:54:48.402Z,7.63
2023-04-25T19:57:15.201Z,7.60
2023-04-25T19:59:45.145Z,7.57
2023-04-25T20:02:12.035Z,7.55
2023-04-25T20:04:39.062Z,7.54
2023-04-25T20:07:06.930Z,7.54
2023-04-25T20:09:33.887Z,7.53
2023-04-25T20:12:02.424Z,7.52
2023-04-25T20:14:55.773Z,7.51
2023-04-25T20:17:22.805Z,7.47
2023-04-25T20:19:49.839Z,7.43
2023-04-25T20:23:07.081Z,7.39
2023-04-25T20:31:30.797Z,7.24
2023-04-25T20:39:35.962Z,7.02
2023-04-25T20:42:34.059Z,7.04
2023-04-25T20:55:04.142Z,6.90
2023-04-25T20:57:51.603Z,6.86
2023-04-25T21:00:37.213Z,6.80
2023-04-25T21:07:12.612Z,6.66
2023-04-25T21:10:16.734Z,6.63
2023-04-25T21:13:02.168Z,6.57
2023-04-25T21:15:29.553Z,6.52
2023-04-25T21:17:56.294Z,6.48
2023-04-25T21:20:23.191Z,6.43
2023-04-25T21:22:53.829Z,6.38
2023-04-25T21:25:29.521Z,6.32
2023-04-25T21:27:57.831Z,6.29
2023-04-25T21:30:25.857Z,6.26
2023-04-25T21:32:53.226Z,6.24
2023-04-25T21:35:21.388Z,6.24
2023-04-25T21:37:48.558Z,6.24
2023-04-25T21:40:15.604Z,6.21
2023-04-25T21:42:44.003Z,6.17
2023-04-25T21:45:11.539Z,6.11
2023-04-25T21:47:38.814Z,6.06
2023-04-25T21:50:06.651Z,6.02
2023-04-25T21:52:35.732Z,5.99
2023-04-25T21:55:02.709Z,5.94
2023-04-25T21:57:29.379Z,5.89
2023-04-25T21:59:56.213Z,5.85
2023-04-25T22:02:24.098Z,5.80
2023-04-25T22:04:51.872Z,5.76
2023-04-25T22:07:18.740Z,5.73
2023-04-25T22:09:54.370Z,5.72
2023-04-25T22:12:22.801Z,5.71
2023-04-25T22:14:49.999Z,5.68
2023-04-25T22:17:17.162Z,5.66
2023-04-25T22:19:44.273Z,5.62
2023-04-25T22:24:00.043Z,5.59
2023-04-25T22:26:12.999Z,5.52
2023-04-25T22:28:40.126Z,5.48
2023-04-25T22:31:07.086Z,5.47
2023-04-25T22:33:33.973Z,5.48
2023-04-25T22:36:01.448Z,5.50
2023-04-25T22:38:28.751Z,5.51
2023-04-25T22:40:56.282Z,5.50
2023-04-25T22:43:23.507Z,5.49
2023-04-25T22:45:51.627Z,5.47
2023-04-25T22:48:19.032Z,5.47
2023-04-25T22:50:46.090Z,5.44
2023-04-25T22:53:12.811Z,5.39
2023-04-25T22:55:39.532Z,5.35
2023-04-25T22:58:09.490Z,5.31
2023-04-25T23:00:36.979Z,5.28
2023-04-25T23:03:04.157Z,5.25
2023-04-25T23:05:32.165Z,5.25
2023-04-25T23:07:58.967Z,5.24
2023-04-25T23:10:27.663Z,5.21
2023-04-25T23:12:57.411Z,5.19
2023-04-25T23:15:25.557Z,5.16
2023-04-25T23:17:52.255Z,5.11
2023-04-25T23:20:20.505Z,5.06
2023-04-25T23:22:47.343Z,5.01
2023-04-25T23:25:14.459Z,4.95
2023-04-25T23:27:41.329Z,4.92
2023-04-25T23:30:09.852Z,4.90
2023-04-25T23:32:37.875Z,4.90
2023-04-25T23:35:05.586Z,4.88
2023-04-25T23:37:33.772Z,4.86
2023-04-25T23:40:00.538Z,4.84
2023-04-25T23:42:27.336Z,4.83
2023-04-25T23:44:54.099Z,4.81
2023-04-25T23:47:20.886Z,4.78
2023-04-25T23:49:47.631Z,4.76
2023-04-25T23:52:15.025Z,4.77
2023-04-25T23:54:41.869Z,4.75
2023-04-25T23:57:08.614Z,4.75
2023-04-25T23:59:35.467Z,4.74
